Time;durP1;ratioP1;P1;durP2;ratioP2;P2;SDS_P1;SDS_P2;PMS_P1;PMS_P2;Temp;Humidity;BMP_temperature;BMP_pressure;BME280_temperature;BME280_humidity;BME280_pressure;Samples;Min_cycle;Max_cycle;Signal;HPM_P1;HPM_P2
2021/01/20 00:00:18;;;;;;;53.73;35.80;;;4.10;75.30;;;;;;5052918;28;20100;-69
2021/01/20 00:02:44;;;;;;;52.13;33.63;;;4.10;75.20;;;;;;5052241;28;20044;-69
2021/01/20 00:05:10;;;;;;;54.23;35.00;;;4.10;75.10;;;;;;5053205;28;20382;-69
2021/01/20 00:07:36;;;;;;;57.70;36.70;;;4.10;75.10;;;;;;5053191;28;20025;-69
2021/01/20 00:10:03;;;;;;;54.83;36.00;;;4.10;75.10;;;;;;5052810;28;20538;-69
2021/01/20 00:12:28;;;;;;;51.87;36.27;;;4.10;75.20;;;;;;5052611;28;20031;-69
2021/01/20 00:15:14;;;;;;;54.13;35.50;;;4.10;75.10;;;;;;5053032;28;20013;-69
2021/01/20 00:20:24;;;;;;;52.00;35.30;;;4.10;75.10;;;;;;5052814;28;20044;-69
2021/01/20 00:22:50;;;;;;;52.40;33.57;;;4.10;75.00;;;;;;5052540;28;20036;-69
2021/01/20 00:25:19;;;;;;;55.40;35.70;;;4.10;74.90;;;;;;5052782;28;20452;-69
2021/01/20 00:27:45;;;;;;;49.60;35.30;;;4.10;75.10;;;;;;5052446;28;20056;-69
2021/01/20 00:30:11;;;;;;;52.07;34.40;;;4.10;75.30;;;;;;5052728;28;20386;-69
2021/01/20 00:32:37;;;;;;;51.70;33.70;;;4.10;75.20;;;;;;5052609;28;20474;-69
2021/01/20 00:35:08;;;;;;;58.13;35.87;;;4.10;75.30;;;;;;5052829;28;20112;-69
2021/01/20 00:37:34;;;;;;;54.40;35.23;;;4.10;75.50;;;;;;5052474;28;20355;-69
2021/01/20 00:40:00;;;;;;;48.67;35.93;;;4.10;75.30;;;;;;5052613;28;20053;-69
2021/01/20 00:42:27;;;;;;;54.00;35.13;;;4.10;75.20;;;;;;5052282;28;20120;-69
2021/01/20 00:44:52;;;;;;;51.17;35.57;;;4.10;75.20;;;;;;5052793;28;20029;-69
2021/01/20 00:47:18;;;;;;;52.37;36.30;;;4.10;75.00;;;;;;5052784;28;20032;-72
2021/01/20 00:49:44;;;;;;;52.10;35.23;;;4.10;75.10;;;;;;5052954;28;20056;-69
2021/01/20 00:52:09;;;;;;;56.83;35.30;;;4.10;75.30;;;;;;5052684;28;20021;-69
2021/01/20 00:54:35;;;;;;;53.83;34.93;;;4.10;75.70;;;;;;5052398;28;20416;-69
2021/01/20 00:57:01;;;;;;;50.37;33.90;;;4.10;75.60;;;;;;5052331;28;20029;-69
2021/01/20 00:59:26;;;;;;;52.97;35.53;;;4.10;75.60;;;;;;5052651;28;20017;-69
2021/01/20 01:01:57;;;;;;;51.93;34.57;;;4.10;75.60;;;;;;5052218;28;20025;-69
2021/01/20 01:04:24;;;;;;;53.73;34.83;;;4.10;75.60;;;;;;5052386;28;20074;-69
2021/01/20 01:06:50;;;;;;;52.97;33.67;;;4.10;75.60;;;;;;5052262;28;20391;-69
2021/01/20 01:09:15;;;;;;;56.27;37.33;;;4.10;75.70;;;;;;5052611;28;20029;-69
2021/01/20 01:11:41;;;;;;;50.40;35.07;;;4.10;75.70;;;;;;5052399;28;20040;-69
2021/01/20 01:14:06;;;;;;;59.30;36.47;;;4.10;76.00;;;;;;5053859;28;20166;-69
2021/01/20 01:16:32;;;;;;;56.13;34.67;;;4.10;76.20;;;;;;5055946;28;20423;-69
2021/01/20 01:18:58;;;;;;;57.27;36.80;;;4.10;76.10;;;;;;5055745;28;20098;-69
2021/01/20 01:21:24;;;;;;;57.97;35.90;;;4.10;75.90;;;;;;5055764;28;20031;-68
2021/01/20 01:23:49;;;;;;;56.10;36.03;;;4.10;76.00;;;;;;5055975;28;20091;-69
2021/01/20 01:26:15;;;;;;;54.50;36.17;;;4.10;76.00;;;;;;5055706;28;20024;-69
2021/01/20 01:28:42;;;;;;;49.23;34.47;;;4.10;76.00;;;;;;5055612;28;20056;-69
2021/01/20 01:31:08;;;;;;;54.77;36.70;;;4.10;76.20;;;;;;5055712;28;20024;-69
2021/01/20 01:33:34;;;;;;;50.17;35.53;;;4.10;76.30;;;;;;5055700;28;20029;-69
2021/01/20 01:36:00;;;;;;;57.83;35.90;;;4.10;76.40;;;;;;5055254;28;20056;-69
2021/01/20 01:38:26;;;;;;;55.93;37.03;;;4.10;75.90;;;;;;5054996;28;20021;-69
2021/01/20 01:40:51;;;;;;;60.03;37.50;;;4.10;75.40;;;;;;5054840;28;20052;-69
2021/01/20 01:43:17;;;;;;;57.53;38.40;;;4.10;75.30;;;;;;5055030;28;20033;-69
2021/01/20 01:45:43;;;;;;;53.60;36.47;;;4.10;75.50;;;;;;5055546;28;20474;-69
2021/01/20 01:48:09;;;;;;;54.83;36.43;;;4.10;75.40;;;;;;5055450;28;20039;-69
2021/01/20 01:50:35;;;;;;;59.33;37.47;;;4.10;75.70;;;;;;5055210;28;20025;-69
2021/01/20 01:53:01;;;;;;;57.03;36.90;;;4.10;75.80;;;;;;5055466;28;20429;-69
2021/01/20 01:55:26;;;;;;;54.30;36.50;;;4.10;75.90;;;;;;5055482;28;20112;-69
2021/01/20 01:57:52;;;;;;;55.87;36.70;;;4.10;75.70;;;;;;5054060;28;20017;-69
2021/01/20 02:00:18;;;;;;;52.87;35.63;;;4.10;75.70;;;;;;5052756;28;20021;-69
2021/01/20 02:02:44;;;;;;;61.00;39.80;;;4.20;75.80;;;;;;5052431;28;20567;-70
2021/01/20 02:05:10;;;;;;;63.87;40.23;;;4.10;76.50;;;;;;5053669;28;20079;-69
2021/01/20 02:07:36;;;;;;;57.43;38.90;;;4.10;75.90;;;;;;5055126;28;20374;-69
2021/01/20 02:10:04;;;;;;;68.70;43.23;;;4.10;76.20;;;;;;5054985;28;20025;-69
2021/01/20 02:13:07;;;;;;;66.90;44.03;;;4.10;76.20;;;;;;5054723;28;20470;-69
2021/01/20 02:15:39;;;;;;;65.60;42.47;;;4.10;76.10;;;;;;5054646;28;20500;-70
2021/01/20 02:18:12;;;;;;;65.50;42.00;;;4.10;76.70;;;;;;5054629;28;20040;-69
2021/01/20 02:21:03;;;;;;;74.70;46.97;;;4.10;76.50;;;;;;5054883;28;20021;-69
2021/01/20 02:23:31;;;;;;;72.50;46.37;;;4.10;76.40;;;;;;5054890;28;20037;-69
2021/01/20 02:26:11;;;;;;;72.80;47.47;;;4.10;76.70;;;;;;5053741;28;20092;-69
2021/01/20 02:29:08;;;;;;;72.73;47.30;;;4.10;76.80;;;;;;5053939;28;20053;-69
2021/01/20 02:31:34;;;;;;;68.60;45.77;;;4.10;77.10;;;;;;5054510;28;20049;-69
2021/01/20 02:34:05;;;;;;;73.70;46.17;;;4.00;77.10;;;;;;5054564;28;20036;-69
2021/01/20 02:36:32;;;;;;;74.27;46.43;;;4.00;77.10;;;;;;5054362;28;20101;-69
2021/01/20 02:39:00;;;;;;;83.10;46.90;;;4.00;77.20;;;;;;5054682;28;20025;-69
2021/01/20 02:41:30;;;;;;;74.50;44.60;;;4.00;77.20;;;;;;5054396;28;20067;-69
2021/01/20 02:44:03;;;;;;;75.93;47.00;;;4.00;77.40;;;;;;5053859;28;20032;-69
2021/01/20 02:46:29;;;;;;;68.90;45.57;;;4.00;77.50;;;;;;5054409;28;20021;-69
2021/01/20 02:48:56;;;;;;;69.27;46.67;;;4.00;77.40;;;;;;5054257;28;20044;-69
2021/01/20 02:51:44;;;;;;;81.77;48.23;;;4.00;77.50;;;;;;5054209;28;20104;-69
2021/01/20 02:54:13;;;;;;;76.57;50.87;;;4.00;77.20;;;;;;5054056;28;20022;-69
2021/01/20 02:56:44;;;;;;;79.33;52.57;;;4.00;76.80;;;;;;5053828;28;20024;-69
2021/01/20 02:59:11;;;;;;;81.87;49.40;;;4.10;77.30;;;;;;5053690;28;20028;-70
2021/01/20 03:01:39;;;;;;;83.80;52.60;;;4.00;77.30;;;;;;5053966;28;20032;-70
2021/01/20 03:04:07;;;;;;;80.50;52.33;;;4.00;77.60;;;;;;5053964;28;20059;-69
2021/01/20 03:06:34;;;;;;;73.23;50.43;;;4.00;78.10;;;;;;5053752;28;20025;-69
2021/01/20 03:09:01;;;;;;;75.70;50.87;;;4.00;78.20;;;;;;5053920;28;20070;-69
2021/01/20 03:11:27;;;;;;;82.70;52.70;;;4.00;78.10;;;;;;5053962;28;20477;-69
2021/01/20 03:13:54;;;;;;;79.97;53.17;;;4.00;77.80;;;;;;5053793;28;20029;-69
2021/01/20 03:16:25;;;;;;;85.57;51.43;;;4.00;77.90;;;;;;5053771;28;20029;-69
2021/01/20 03:18:51;;;;;;;81.13;53.73;;;4.00;77.80;;;;;;5053601;28;20021;-69
2021/01/20 03:21:17;;;;;;;80.00;53.30;;;4.00;78.10;;;;;;5053727;28;20083;-69
2021/01/20 03:23:42;;;;;;;82.83;51.50;;;4.00;78.30;;;;;;5053409;28;20037;-70
2021/01/20 03:26:08;;;;;;;68.27;47.63;;;4.00;78.80;;;;;;5053706;28;20024;-69
2021/01/20 03:28:34;;;;;;;69.37;47.17;;;3.90;78.40;;;;;;5053027;28;20509;-70
2021/01/20 03:31:00;;;;;;;65.37;43.93;;;4.00;78.30;;;;;;5053783;28;20017;-69
2021/01/20 03:33:25;;;;;;;67.43;43.23;;;3.90;78.20;;;;;;5053634;28;20025;-69
2021/01/20 03:35:51;;;;;;;57.87;40.40;;;4.00;78.20;;;;;;5053446;28;20032;-69
2021/01/20 03:38:17;;;;;;;59.83;40.60;;;4.00;78.50;;;;;;5053266;28;20024;-69
2021/01/20 03:40:42;;;;;;;60.67;40.03;;;4.00;78.30;;;;;;5053400;28;20095;-69
2021/01/20 03:43:08;;;;;;;62.17;40.33;;;4.00;78.30;;;;;;5053289;28;20116;-69
2021/01/20 03:45:34;;;;;;;63.63;41.00;;;4.00;78.30;;;;;;5053003;28;20095;-69
2021/01/20 03:47:59;;;;;;;62.87;42.73;;;4.00;77.90;;;;;;5053062;28;20105;-69
2021/01/20 03:50:25;;;;;;;66.13;42.60;;;4.00;77.80;;;;;;5053364;28;20560;-69
2021/01/20 03:52:51;;;;;;;71.53;47.37;;;4.00;77.80;;;;;;5053102;28;20390;-70
2021/01/20 03:55:16;;;;;;;73.17;48.50;;;4.00;77.90;;;;;;5053178;28;20441;-69
2021/01/20 03:57:42;;;;;;;74.93;47.97;;;4.00;78.30;;;;;;5053023;28;20052;-70
2021/01/20 04:00:08;;;;;;;69.40;45.97;;;4.00;78.10;;;;;;5052956;28;20028;-70
2021/01/20 04:02:34;;;;;;;70.67;45.80;;;4.00;77.90;;;;;;5052958;28;20025;-70
2021/01/20 04:05:00;;;;;;;68.77;46.80;;;4.00;77.80;;;;;;5053039;28;20470;-70
2021/01/20 04:07:25;;;;;;;64.17;43.50;;;4.10;77.90;;;;;;5053205;28;20021;-70
2021/01/20 04:09:51;;;;;;;65.10;44.00;;;4.10;77.80;;;;;;5053132;28;20020;-69
2021/01/20 04:12:17;;;;;;;62.27;42.03;;;4.10;78.40;;;;;;5052873;28;20367;-70
2021/01/20 04:14:42;;;;;;;61.63;41.47;;;4.00;77.80;;;;;;5052905;28;20013;-70
2021/01/20 04:17:08;;;;;;;58.43;40.17;;;4.00;77.70;;;;;;5052945;28;20028;-69
2021/01/20 04:19:34;;;;;;;54.80;35.77;;;4.00;77.90;;;;;;5052943;28;20029;-69
2021/01/20 04:21:59;;;;;;;56.40;36.60;;;4.10;77.90;;;;;;5053008;28;20035;-70
2021/01/20 04:24:25;;;;;;;52.50;35.47;;;4.00;77.60;;;;;;5053005;28;20079;-69
2021/01/20 04:26:51;;;;;;;53.20;36.30;;;4.00;77.50;;;;;;5052630;28;20044;-70
2021/01/20 04:29:16;;;;;;;55.33;35.67;;;4.10;77.70;;;;;;5052696;28;20063;-70
2021/01/20 04:31:42;;;;;;;50.07;32.87;;;4.00;77.60;;;;;;5052581;28;20043;-70
2021/01/20 04:34:08;;;;;;;52.90;34.97;;;4.00;77.50;;;;;;5052648;28;20056;-70
2021/01/20 04:36:34;;;;;;;50.97;35.67;;;4.00;77.40;;;;;;5052798;28;20038;-69
2021/01/20 04:39:00;;;;;;;49.50;33.37;;;4.10;77.80;;;;;;5052793;28;20021;-70
2021/01/20 04:41:27;;;;;;;45.17;32.33;;;4.00;77.60;;;;;;5052590;28;20099;-69
2021/01/20 04:43:52;;;;;;;49.63;33.53;;;4.10;77.30;;;;;;5052708;28;20037;-70
2021/01/20 04:46:19;;;;;;;49.27;32.87;;;4.10;77.30;;;;;;5052604;28;20026;-69
2021/01/20 04:48:47;;;;;;;43.93;32.60;;;4.00;77.20;;;;;;5053990;28;20024;-69
2021/01/20 04:51:17;;;;;;;44.27;30.57;;;4.00;77.10;;;;;;5056726;28;20024;-69
2021/01/20 04:53:43;;;;;;;43.67;31.97;;;4.00;77.10;;;;;;5056479;28;20032;-69
2021/01/20 04:56:13;;;;;;;46.03;30.73;;;4.00;76.80;;;;;;5056555;28;20493;-69
2021/01/20 04:58:40;;;;;;;44.43;31.57;;;4.00;76.90;;;;;;5056345;28;20059;-69
2021/01/20 05:01:05;;;;;;;42.20;30.13;;;4.00;77.00;;;;;;5056431;28;20028;-69
2021/01/20 05:03:31;;;;;;;43.87;31.53;;;4.00;76.90;;;;;;5056179;28;20037;-69
2021/01/20 05:05:57;;;;;;;48.90;31.20;;;4.00;76.90;;;;;;5056467;28;20070;-69
2021/01/20 05:08:23;;;;;;;41.83;29.77;;;4.00;76.80;;;;;;5056285;28;20029;-69
2021/01/20 05:10:50;;;;;;;44.30;29.53;;;4.00;76.60;;;;;;5056253;28;20021;-69
2021/01/20 05:13:26;;;;;;;43.77;30.90;;;4.00;76.50;;;;;;5056282;28;20032;-69
2021/01/20 05:15:53;;;;;;;39.10;28.27;;;4.10;76.40;;;;;;5056010;28;20083;-69
2021/01/20 05:18:18;;;;;;;48.33;29.13;;;4.10;76.10;;;;;;5056071;28;20100;-69
2021/01/20 05:20:45;;;;;;;46.37;30.80;;;4.10;76.00;;;;;;5056060;28;20422;-70
2021/01/20 05:23:11;;;;;;;42.50;30.43;;;4.10;75.90;;;;;;5055899;28;20048;-69
2021/01/20 05:25:39;;;;;;;45.97;30.70;;;4.10;75.80;;;;;;5055853;28;20029;-69
2021/01/20 05:28:24;;;;;;;43.73;31.00;;;4.10;75.70;;;;;;5055742;28;20493;-69
2021/01/20 05:30:58;;;;;;;45.77;31.07;;;4.10;75.60;;;;;;5055963;28;20104;-69
2021/01/20 05:33:26;;;;;;;43.40;31.73;;;4.10;75.30;;;;;;5055645;28;20424;-69
2021/01/20 05:36:14;;;;;;;45.03;32.30;;;4.10;75.30;;;;;;5055447;28;20033;-69
2021/01/20 05:38:44;;;;;;;50.27;33.70;;;4.20;75.30;;;;;;5055458;28;20025;-69
2021/01/20 05:41:29;;;;;;;42.60;31.23;;;4.20;75.10;;;;;;5055748;28;20017;-69
2021/01/20 05:44:07;;;;;;;49.70;32.60;;;4.10;74.90;;;;;;5055233;28;20064;-69
2021/01/20 05:46:35;;;;;;;48.50;32.10;;;4.10;75.20;;;;;;5055353;28;20066;-69
2021/01/20 05:49:01;;;;;;;49.13;31.17;;;4.20;75.10;;;;;;5055243;28;20355;-69
2021/01/20 05:51:41;;;;;;;48.77;32.93;;;4.20;75.20;;;;;;5054660;28;20022;-70
2021/01/20 05:54:10;;;;;;;51.30;32.03;;;4.20;74.90;;;;;;5054846;28;20100;-69
2021/01/20 05:56:38;;;;;;;50.33;31.70;;;4.20;74.90;;;;;;5054686;28;20029;-69
2021/01/20 05:59:10;;;;;;;51.57;31.00;;;4.20;74.80;;;;;;5055066;28;20021;-71
2021/01/20 06:01:39;;;;;;;52.72;32.65;;;4.20;75.00;;;;;;5055090;28;20025;-71
2021/01/20 06:04:05;;;;;;;52.43;35.80;;;4.20;74.90;;;;;;5055001;28;20033;-70
2021/01/20 06:06:31;;;;;;;48.37;34.03;;;4.20;75.50;;;;;;5053753;28;20078;-70
2021/01/20 06:09:00;;;;;;;52.13;35.57;;;4.10;75.70;;;;;;5055031;28;20100;-70
2021/01/20 06:11:25;;;;;;;51.37;35.17;;;4.10;75.70;;;;;;5055839;28;20477;-70
2021/01/20 06:13:52;;;;;;;54.93;36.93;;;4.20;75.20;;;;;;5055037;28;20055;-70
2021/01/20 06:16:22;;;;;;;50.13;35.93;;;4.20;75.70;;;;;;5055132;28;20063;-72
2021/01/20 06:18:50;;;;;;;47.67;33.40;;;4.20;75.90;;;;;;5054893;28;20031;-70
2021/01/20 06:21:18;;;;;;;50.17;33.13;;;4.10;76.10;;;;;;5054519;28;20550;-70
2021/01/20 06:24:23;;;;;;;50.27;34.37;;;4.20;76.30;;;;;;5054819;28;20037;-70
2021/01/20 06:26:56;;;;;;;54.07;33.83;;;4.20;76.20;;;;;;5050829;28;20029;-70
2021/01/20 06:29:26;;;;;;;48.03;34.00;;;4.20;76.20;;;;;;5054680;28;20053;-71
2021/01/20 06:31:53;;;;;;;49.03;33.80;;;4.20;76.30;;;;;;5054514;28;20029;-70
2021/01/20 06:34:19;;;;;;;47.90;33.50;;;4.20;76.20;;;;;;5054989;28;20026;-72
2021/01/20 06:36:45;;;;;;;51.30;32.67;;;4.20;76.00;;;;;;5054906;28;20052;-70
2021/01/20 06:39:26;;;;;;;43.60;30.63;;;4.20;75.80;;;;;;5054794;28;20031;-70
2021/01/20 06:41:52;;;;;;;44.23;31.80;;;4.20;75.50;;;;;;5054472;28;20032;-70
2021/01/20 06:44:18;;;;;;;48.53;31.20;;;4.20;75.40;;;;;;5054215;28;20036;-70
2021/01/20 06:47:05;;;;;;;44.70;31.33;;;4.20;75.20;;;;;;5054466;28;20104;-70
2021/01/20 06:49:34;;;;;;;45.70;32.03;;;4.20;75.00;;;;;;5054037;28;20025;-70
2021/01/20 06:52:10;;;;;;;45.73;31.20;;;4.20;74.80;;;;;;5054028;28;20450;-70
2021/01/20 06:54:44;;;;;;;46.57;32.40;;;4.30;75.20;;;;;;5053986;28;20373;-70
2021/01/20 06:57:28;;;;;;;51.27;33.73;;;4.20;74.50;;;;;;5053837;28;20355;-69
2021/01/20 07:00:13;;;;;;;47.60;31.90;;;4.20;74.50;;;;;;5052911;28;20107;-70
2021/01/20 07:03:01;;;;;;;52.03;34.57;;;4.20;74.40;;;;;;5053910;28;20041;-70
2021/01/20 07:05:41;;;;;;;59.00;36.67;;;4.20;74.80;;;;;;5053982;28;20021;-70
2021/01/20 07:08:08;;;;;;;54.70;38.20;;;4.30;74.80;;;;;;5053682;28;20042;-69
2021/01/20 07:10:59;;;;;;;54.70;38.07;;;4.30;74.80;;;;;;5053521;28;20053;-70
2021/01/20 07:13:36;;;;;;;54.17;36.03;;;4.20;75.10;;;;;;5052970;28;20524;-70
2021/01/20 07:16:05;;;;;;;63.37;37.73;;;4.20;75.00;;;;;;5051875;28;20024;-70
2021/01/20 07:18:31;;;;;;;65.50;40.77;;;4.30;75.20;;;;;;5053580;28;20024;-70
2021/01/20 07:20:56;;;;;;;65.97;43.63;;;4.20;75.40;;;;;;5053758;28;20052;-70
2021/01/20 07:23:23;;;;;;;68.10;45.10;;;4.20;75.40;;;;;;5053693;28;20393;-70
2021/01/20 07:25:50;;;;;;;64.67;41.03;;;4.20;75.50;;;;;;5053640;28;20028;-70
2021/01/20 07:28:17;;;;;;;64.57;42.03;;;4.20;75.30;;;;;;5053160;28;20057;-70
2021/01/20 07:30:43;;;;;;;63.90;41.80;;;4.30;75.50;;;;;;5052451;28;20100;-71
2021/01/20 07:33:19;;;;;;;67.93;42.93;;;4.30;75.90;;;;;;5051545;28;20100;-71
2021/01/20 07:35:45;;;;;;;67.03;43.40;;;4.20;75.80;;;;;;5050136;28;20064;-70
2021/01/20 07:38:11;;;;;;;65.03;43.67;;;4.20;75.60;;;;;;5051249;28;20028;-70
2021/01/20 07:40:39;;;;;;;65.10;41.67;;;4.30;75.70;;;;;;5051439;28;20025;-71
2021/01/20 07:43:05;;;;;;;64.23;43.63;;;4.30;75.60;;;;;;5051322;28;20102;-71
2021/01/20 07:45:32;;;;;;;64.33;42.03;;;4.30;75.90;;;;;;5052325;28;20048;-70
2021/01/20 07:47:57;;;;;;;69.10;43.03;;;4.30;75.90;;;;;;5053219;28;20029;-70
2021/01/20 07:50:55;;;;;;;69.17;45.10;;;4.30;76.00;;;;;;5053194;28;20036;-70
2021/01/20 07:53:21;;;;;;;60.73;42.10;;;4.30;75.80;;;;;;5051144;28;20379;-71
2021/01/20 07:55:52;;;;;;;68.83;42.13;;;4.30;75.60;;;;;;5053034;28;20033;-70
2021/01/20 07:58:27;;;;;;;66.37;43.73;;;4.30;75.80;;;;;;5052915;28;20441;-71
2021/01/20 08:00:54;;;;;;;70.00;45.40;;;4.30;75.90;;;;;;5053388;28;20086;-71
2021/01/20 08:03:32;;;;;;;65.20;43.50;;;4.30;75.90;;;;;;5052994;28;20037;-70
2021/01/20 08:05:58;;;;;;;74.10;46.00;;;4.30;75.90;;;;;;5052856;28;20029;-70
2021/01/20 08:08:24;;;;;;;68.53;46.03;;;4.30;75.90;;;;;;5052987;28;20033;-70
2021/01/20 08:10:54;;;;;;;64.23;44.47;;;4.40;75.70;;;;;;5053141;28;20066;-70
2021/01/20 08:13:20;;;;;;;67.53;44.13;;;4.40;75.70;;;;;;5052980;28;20367;-70
2021/01/20 08:15:46;;;;;;;70.33;45.93;;;4.40;75.60;;;;;;5053161;28;20017;-70
2021/01/20 08:18:14;;;;;;;72.77;45.47;;;4.40;75.60;;;;;;5052008;28;20041;-70
2021/01/20 08:20:40;;;;;;;64.83;45.80;;;4.40;75.70;;;;;;5053022;28;20025;-70
2021/01/20 08:23:19;;;;;;;67.77;46.00;;;4.40;75.80;;;;;;5053387;28;20390;-70
2021/01/20 08:25:45;;;;;;;72.97;46.23;;;4.50;76.60;;;;;;5057323;28;20116;-70
2021/01/20 08:28:12;;;;;;;70.97;45.37;;;4.50;75.90;;;;;;5056927;28;20556;-70
2021/01/20 08:30:39;;;;;;;76.03;46.63;;;4.50;76.00;;;;;;5057252;28;20413;-70
2021/01/20 08:33:05;;;;;;;73.43;45.63;;;4.60;75.90;;;;;;5057099;28;20036;-70
2021/01/20 08:35:32;;;;;;;69.83;46.87;;;4.60;76.00;;;;;;5057035;28;20380;-70
2021/01/20 08:37:58;;;;;;;70.07;47.30;;;4.60;76.20;;;;;;5056819;28;20465;-70
2021/01/20 08:40:24;;;;;;;70.83;46.37;;;4.60;76.40;;;;;;5056934;28;20028;-70
2021/01/20 08:42:50;;;;;;;63.10;41.90;;;4.60;76.10;;;;;;5056785;28;20033;-70
2021/01/20 08:45:19;;;;;;;55.50;36.17;;;4.70;76.30;;;;;;5056739;28;20025;-70
2021/01/20 08:48:00;;;;;;;51.97;34.67;;;4.70;76.70;;;;;;5056909;28;20032;-70
2021/01/20 08:50:41;;;;;;;47.70;33.30;;;4.70;76.00;;;;;;5056760;28;20478;-70
2021/01/20 08:53:11;;;;;;;47.37;34.27;;;4.70;75.80;;;;;;5056787;28;20473;-70
2021/01/20 08:55:53;;;;;;;49.93;34.20;;;4.80;75.70;;;;;;5056532;28;20105;-70
2021/01/20 08:58:22;;;;;;;50.17;34.10;;;4.80;75.60;;;;;;5056602;28;20021;-70
2021/01/20 09:00:51;;;;;;;52.57;34.80;;;4.80;75.60;;;;;;5056709;28;20032;-70
2021/01/20 09:03:38;;;;;;;57.60;33.77;;;4.80;75.60;;;;;;5056384;28;20061;-70
2021/01/20 09:06:15;;;;;;;46.53;33.27;;;4.80;75.60;;;;;;5056633;28;20056;-70
2021/01/20 09:08:41;;;;;;;56.80;33.80;;;4.80;75.60;;;;;;5056167;28;20416;-70
2021/01/20 09:11:07;;;;;;;53.57;32.77;;;4.80;75.40;;;;;;5056221;28;20029;-70
2021/01/20 09:13:32;;;;;;;57.10;34.00;;;4.80;75.40;;;;;;5056330;28;20128;-70
2021/01/20 09:15:58;;;;;;;55.10;34.30;;;4.80;75.30;;;;;;5056112;28;20021;-70
2021/01/20 09:18:25;;;;;;;55.10;34.00;;;4.80;75.40;;;;;;5056028;28;20083;-70
2021/01/20 09:20:52;;;;;;;49.60;34.80;;;4.80;75.40;;;;;;5052970;28;20051;-70
2021/01/20 09:23:19;;;;;;;52.73;34.87;;;4.80;75.30;;;;;;5053104;28;20120;-70
2021/01/20 09:25:45;;;;;;;56.50;35.07;;;4.80;75.50;;;;;;5055782;28;20420;-70
2021/01/20 09:28:11;;;;;;;55.30;36.37;;;4.90;75.40;;;;;;5055872;28;20045;-70
2021/01/20 09:30:37;;;;;;;49.00;35.03;;;4.90;75.40;;;;;;5055842;28;20024;-70
2021/01/20 09:33:04;;;;;;;53.63;36.87;;;4.90;75.60;;;;;;5055689;28;20496;-70
2021/01/20 09:35:30;;;;;;;52.87;37.60;;;4.90;75.80;;;;;;5055411;28;20485;-70
2021/01/20 09:37:56;;;;;;;56.93;37.40;;;4.90;76.00;;;;;;5055651;28;20017;-70
2021/01/20 09:40:24;;;;;;;58.07;37.73;;;4.90;76.90;;;;;;5055931;28;20493;-70
2021/01/20 09:42:52;;;;;;;54.17;35.80;;;4.90;76.90;;;;;;5055815;28;20085;-70
2021/01/20 09:45:20;;;;;;;52.47;36.30;;;4.90;77.30;;;;;;5055676;28;20355;-70
2021/01/20 09:47:46;;;;;;;54.57;38.50;;;4.90;77.50;;;;;;5055748;28;20025;-70
2021/01/20 09:50:14;;;;;;;58.13;37.73;;;4.90;77.60;;;;;;5055792;28;20067;-70
2021/01/20 09:52:41;;;;;;;51.03;38.37;;;4.90;77.60;;;;;;5055748;28;20032;-70
2021/01/20 09:55:07;;;;;;;61.47;40.53;;;4.90;78.70;;;;;;5055515;28;20070;-70
2021/01/20 09:57:33;;;;;;;67.83;42.80;;;4.90;78.60;;;;;;5055331;28;20470;-70
2021/01/20 10:00:01;;;;;;;61.83;39.40;;;4.90;78.80;;;;;;5055511;28;20436;-70
2021/01/20 10:02:27;;;;;;;59.33;40.77;;;4.80;78.70;;;;;;5055424;28;20083;-70
2021/01/20 10:04:52;;;;;;;58.03;40.30;;;4.90;79.10;;;;;;5055496;28;20024;-70
2021/01/20 10:07:18;;;;;;;59.07;39.27;;;4.90;79.00;;;;;;5054654;28;20063;-70
2021/01/20 10:09:44;;;;;;;53.97;40.17;;;4.90;79.00;;;;;;5054245;28;20428;-70
2021/01/20 10:12:11;;;;;;;61.87;40.23;;;4.90;79.20;;;;;;5055288;28;20027;-70
2021/01/20 10:14:38;;;;;;;62.63;40.47;;;4.90;79.20;;;;;;5055241;28;20032;-70
2021/01/20 10:17:04;;;;;;;56.70;41.67;;;4.90;79.10;;;;;;5054782;28;20431;-70
2021/01/20 10:19:30;;;;;;;59.47;42.27;;;4.90;79.00;;;;;;5055087;28;20048;-70
2021/01/20 10:21:56;;;;;;;64.97;45.40;;;4.90;79.00;;;;;;5054999;28;20059;-70
2021/01/20 10:24:22;;;;;;;54.77;39.53;;;4.90;79.10;;;;;;5053865;28;20124;-68
2021/01/20 10:26:48;;;;;;;55.73;39.03;;;4.90;79.80;;;;;;5052083;28;20090;-68
2021/01/20 10:29:13;;;;;;;58.13;38.93;;;4.90;79.50;;;;;;5051803;28;20061;-67
2021/01/20 10:31:40;;;;;;;60.03;39.70;;;4.90;79.30;;;;;;5053096;28;20378;-68
2021/01/20 10:34:07;;;;;;;61.37;39.53;;;4.90;79.60;;;;;;5053733;28;20051;-67
2021/01/20 10:36:33;;;;;;;53.63;40.43;;;4.90;80.10;;;;;;5053459;28;20222;-67
2021/01/20 10:39:00;;;;;;;51.60;37.03;;;4.90;79.80;;;;;;5054371;28;20025;-67
2021/01/20 10:41:26;;;;;;;66.73;43.73;;;4.90;79.60;;;;;;5051777;28;20032;-68
2021/01/20 10:43:53;;;;;;;74.13;52.30;;;4.90;79.60;;;;;;5050838;28;20079;-67
2021/01/20 10:46:25;;;;;;;77.37;53.07;;;4.90;79.50;;;;;;5051891;28;20541;-67
2021/01/20 10:48:54;;;;;;;78.03;55.23;;;4.90;79.40;;;;;;5050703;28;20417;-67
2021/01/20 10:51:21;;;;;;;81.67;58.87;;;5.00;79.50;;;;;;5050464;28;20029;-68
2021/01/20 10:53:47;;;;;;;85.57;59.27;;;5.00;79.80;;;;;;5051773;28;20025;-68
2021/01/20 10:56:13;;;;;;;83.47;58.07;;;5.00;79.90;;;;;;5053644;28;20528;-68
2021/01/20 10:58:39;;;;;;;86.07;62.93;;;5.00;80.00;;;;;;5036804;28;20025;-68
2021/01/20 11:01:05;;;;;;;83.87;58.23;;;5.00;80.10;;;;;;5033368;28;20447;-67
2021/01/20 11:03:31;;;;;;;89.33;66.90;;;5.00;80.20;;;;;;5033239;28;20037;-67
2021/01/20 11:05:57;;;;;;;97.00;67.00;;;5.00;80.20;;;;;;5032764;28;20501;-67
2021/01/20 11:08:22;;;;;;;96.17;67.13;;;5.00;80.30;;;;;;5043144;28;20037;-68
2021/01/20 11:10:48;;;;;;;97.67;69.63;;;5.10;81.00;;;;;;5053518;28;20036;-67
2021/01/20 11:13:14;;;;;;;96.23;68.13;;;5.10;80.70;;;;;;5053467;28;20060;-68
2021/01/20 11:15:48;;;;;;;89.83;62.73;;;5.10;80.50;;;;;;5053502;28;20035;-67
2021/01/20 11:18:16;;;;;;;96.07;68.33;;;5.10;80.40;;;;;;5053060;28;20033;-67
2021/01/20 11:20:47;;;;;;;93.73;68.03;;;5.10;80.50;;;;;;5052929;28;20025;-68
2021/01/20 11:23:16;;;;;;;91.97;64.87;;;5.10;80.90;;;;;;5053041;28;20041;-67
2021/01/20 11:25:52;;;;;;;88.30;62.53;;;5.10;80.80;;;;;;5053643;28;20021;-67
2021/01/20 11:28:18;;;;;;;93.33;66.07;;;5.10;81.00;;;;;;5053284;28;20072;-67
2021/01/20 11:30:44;;;;;;;95.10;69.30;;;5.10;80.90;;;;;;5053492;28;20735;-68
2021/01/20 11:33:11;;;;;;;114.30;77.43;;;5.10;81.00;;;;;;5053648;28;20029;-67
2021/01/20 11:35:37;;;;;;;108.67;72.70;;;5.10;81.10;;;;;;5053745;28;20032;-67
2021/01/20 11:38:05;;;;;;;99.73;71.83;;;5.10;81.20;;;;;;5053255;28;20049;-67
2021/01/20 11:40:32;;;;;;;99.67;71.37;;;5.20;81.30;;;;;;5052832;28;20033;-68
2021/01/20 11:42:59;;;;;;;100.47;69.30;;;5.20;81.20;;;;;;5053420;28;20041;-67
2021/01/20 11:45:26;;;;;;;95.23;69.23;;;5.20;81.40;;;;;;5053150;28;20083;-67
2021/01/20 11:47:51;;;;;;;91.77;66.17;;;5.20;81.30;;;;;;5053675;28;20032;-67
2021/01/20 11:50:18;;;;;;;93.87;67.90;;;5.20;81.90;;;;;;5053143;28;20029;-67
2021/01/20 11:52:43;;;;;;;103.37;68.80;;;5.20;81.20;;;;;;5053053;28;20033;-67
2021/01/20 11:55:09;;;;;;;97.53;67.50;;;5.20;81.30;;;;;;5053172;28;20025;-67
2021/01/20 11:57:35;;;;;;;91.93;66.93;;;5.20;81.20;;;;;;5052969;28;20036;-67
2021/01/20 12:00:01;;;;;;;97.60;70.20;;;5.30;81.40;;;;;;5050700;28;20021;-68
2021/01/20 12:02:26;;;;;;;90.30;65.07;;;5.30;81.50;;;;;;5050339;28;20068;-68
2021/01/20 12:04:52;;;;;;;94.53;65.13;;;5.30;81.60;;;;;;5049792;28;20036;-68
2021/01/20 12:07:17;;;;;;;90.50;68.63;;;5.30;81.50;;;;;;5052161;28;20033;-67
2021/01/20 12:09:43;;;;;;;77.00;57.07;;;5.30;81.60;;;;;;5051981;28;20029;-68
2021/01/20 12:12:09;;;;;;;62.90;45.47;;;5.30;82.00;;;;;;5052945;28;20392;-68
2021/01/20 12:14:37;;;;;;;56.30;40.70;;;5.30;81.90;;;;;;5052615;28;20493;-68
2021/01/20 12:17:04;;;;;;;58.40;41.10;;;5.30;81.80;;;;;;5052539;28;20067;-68
2021/01/20 12:19:30;;;;;;;56.27;40.37;;;5.40;81.70;;;;;;5052800;28;20574;-68
2021/01/20 12:21:55;;;;;;;53.00;35.97;;;5.40;81.60;;;;;;5051120;28;20100;-68
2021/01/20 12:24:21;;;;;;;53.83;36.67;;;5.40;81.50;;;;;;5052480;28;20163;-68
2021/01/20 12:26:47;;;;;;;53.47;35.73;;;5.40;81.20;;;;;;5051595;28;20445;-68
2021/01/20 12:29:13;;;;;;;50.40;36.87;;;5.40;81.20;;;;;;5049797;28;20057;-68
2021/01/20 12:31:38;;;;;;;51.83;35.57;;;5.40;82.10;;;;;;5048531;28;20112;-67
2021/01/20 12:34:04;;;;;;;50.13;36.23;;;5.40;81.30;;;;;;5049073;28;20453;-68
2021/01/20 12:36:29;;;;;;;48.43;34.07;;;5.50;81.30;;;;;;5051042;28;20033;-67
2021/01/20 12:38:55;;;;;;;52.57;36.30;;;5.50;81.40;;;;;;5051013;28;20024;-67
2021/01/20 12:41:21;;;;;;;50.80;36.50;;;5.50;81.00;;;;;;5050772;28;20036;-68
2021/01/20 12:43:47;;;;;;;52.57;37.77;;;5.50;80.90;;;;;;5051020;28;20039;-68